createdAt,value
2023-05-19T00:01:44.005Z,3.50
2023-05-19T00:04:15.483Z,3.50
2023-05-19T00:06:47.334Z,3.42
2023-05-19T00:09:17.849Z,3.28
2023-05-19T00:11:48.706Z,3.72
2023-05-19T00:14:19.308Z,3.53
2023-05-19T00:16:52.757Z,3.78
2023-05-19T00:19:25.203Z,3.53
2023-05-19T00:21:55.380Z,3.70
2023-05-19T00:24:25.430Z,3.30
2023-05-19T00:26:55.473Z,3.00
2023-05-19T00:29:25.519Z,4.20
2023-05-19T00:31:59.962Z,3.50
2023-05-19T00:34:30.161Z,3.53
2023-05-19T00:37:00.188Z,3.65
2023-05-19T00:39:30.285Z,3.30
2023-05-19T00:42:00.857Z,3.30
2023-05-19T00:44:31.085Z,4.20
2023-05-19T00:47:03.919Z,3.50
2023-05-19T00:49:33.990Z,3.75
2023-05-19T00:52:04.723Z,3.25
2023-05-19T00:54:36.168Z,2.85
2023-05-19T00:57:06.660Z,3.00
2023-05-19T00:59:36.739Z,2.95
2023-05-19T01:02:09.505Z,3.30
2023-05-19T01:04:42.016Z,3.33
2023-05-19T01:07:12.689Z,3.30
2023-05-19T01:09:43.485Z,3.50
2023-05-19T01:12:14.052Z,3.40
2023-05-19T01:14:44.445Z,4.22
2023-05-19T01:17:20.919Z,3.58
2023-05-19T01:20:07.036Z,3.50
2023-05-19T01:23:05.393Z,3.40
2023-05-19T01:26:07.726Z,3.88
2023-05-19T01:28:53.024Z,3.28
2023-05-19T01:31:26.753Z,3.42
2023-05-19T01:33:57.840Z,3.40
2023-05-19T01:36:29.419Z,3.70
2023-05-19T01:39:01.525Z,3.50
2023-05-19T01:41:33.979Z,3.22
2023-05-19T01:44:04.043Z,3.47
2023-05-19T01:46:37.359Z,3.65
2023-05-19T01:49:07.898Z,3.50
2023-05-19T01:51:38.184Z,3.17
2023-05-19T01:54:08.731Z,3.63
2023-05-19T01:56:45.254Z,3.38
2023-05-19T01:59:24.935Z,3.47
2023-05-19T02:02:01.026Z,3.25
2023-05-19T02:04:40.352Z,4.40
2023-05-19T02:07:17.489Z,6.47
2023-05-19T02:09:55.272Z,5.68
2023-05-19T02:12:32.756Z,4.18
2023-05-19T02:15:08.586Z,3.47
2023-05-19T02:17:47.994Z,3.70
2023-05-19T02:20:18.782Z,4.05
2023-05-19T02:22:49.248Z,4.20
2023-05-19T02:25:19.313Z,4.53
2023-05-19T02:27:49.400Z,4.13
2023-05-19T02:30:19.490Z,4.97
2023-05-19T02:32:54.434Z,3.58
2023-05-19T02:35:24.913Z,4.32
2023-05-19T02:37:55.269Z,3.88
2023-05-19T02:40:25.946Z,3.10
2023-05-19T02:42:56.084Z,4.13
2023-05-19T02:45:28.713Z,3.70
2023-05-19T02:48:03.376Z,3.50
2023-05-19T02:50:33.800Z,4.60
2023-05-19T02:53:03.963Z,4.18
2023-05-19T02:55:34.014Z,5.05
2023-05-19T02:58:04.397Z,4.45
2023-05-19T03:00:34.546Z,4.40
2023-05-19T03:03:07.566Z,4.32
2023-05-19T03:05:37.657Z,5.05
2023-05-19T03:08:07.951Z,5.18
2023-05-19T03:10:38.068Z,5.50
2023-05-19T03:13:08.341Z,5.35
2023-05-19T03:15:38.610Z,4.90
2023-05-19T03:18:12.223Z,4.80
2023-05-19T03:20:42.658Z,5.43
2023-05-19T03:23:12.818Z,4.60
2023-05-19T03:25:42.902Z,5.07
2023-05-19T03:28:13.225Z,4.75
2023-05-19T03:30:43.337Z,5.00
2023-05-19T03:33:24.223Z,5.20
2023-05-19T03:35:54.982Z,5.15
2023-05-19T03:38:25.083Z,5.50
2023-05-19T03:41:00.391Z,4.90
2023-05-19T03:43:30.477Z,5.32
2023-05-19T03:46:05.170Z,4.60
2023-05-19T03:48:56.490Z,9.95
2023-05-19T03:51:45.150Z,9.38
2023-05-19T03:54:29.037Z,9.57
2023-05-19T03:56:59.933Z,9.00
2023-05-19T03:59:29.969Z,11.05
2023-05-19T04:02:00.379Z,10.20
2023-05-19T04:04:33.120Z,8.55
2023-05-19T04:07:03.219Z,5.40
2023-05-19T04:09:35.639Z,5.68
2023-05-19T04:12:05.826Z,5.22
2023-05-19T04:14:35.942Z,5.00
2023-05-19T04:17:06.720Z,5.78
2023-05-19T04:19:39.525Z,5.65
2023-05-19T04:22:09.625Z,5.63
2023-05-19T04:24:39.803Z,4.85
2023-05-19T04:27:12.281Z,5.97
2023-05-19T04:29:43.695Z,4.47
2023-05-19T04:32:17.976Z,4.03
2023-05-19T04:34:51.189Z,4.30
2023-05-19T04:37:26.098Z,4.47
2023-05-19T04:39:56.600Z,4.47
2023-05-19T04:42:30.902Z,4.55
2023-05-19T04:45:03.931Z,4.47
2023-05-19T04:47:37.156Z,3.90
2023-05-19T04:50:11.587Z,3.90
2023-05-19T04:52:41.948Z,4.03
2023-05-19T04:55:13.506Z,4.00
2023-05-19T04:57:44.295Z,3.85
2023-05-19T05:00:16.144Z,3.90
2023-05-19T05:03:05.624Z,3.88
2023-05-19T05:05:38.877Z,3.38
2023-05-19T05:08:09.228Z,3.55
2023-05-19T05:10:46.123Z,3.50
2023-05-19T05:13:16.814Z,4.72
2023-05-19T05:15:47.527Z,4.88
2023-05-19T05:18:19.265Z,5.35
2023-05-19T05:20:52.775Z,3.28
2023-05-19T05:23:24.010Z,4.28
2023-05-19T05:25:54.845Z,3.42
2023-05-19T05:28:25.795Z,3.90
2023-05-19T05:30:58.100Z,4.20
2023-05-19T05:33:28.362Z,3.55
2023-05-19T05:36:01.445Z,3.33
2023-05-19T05:38:32.247Z,4.20
2023-05-19T05:41:03.334Z,4.10
2023-05-19T05:43:35.287Z,4.72
2023-05-19T05:46:07.162Z,4.55
2023-05-19T05:48:38.225Z,3.28
2023-05-19T05:51:12.703Z,3.17
2023-05-19T05:53:45.968Z,3.28
2023-05-19T05:56:18.633Z,3.88
2023-05-19T05:58:53.987Z,3.35
2023-05-19T06:01:24.672Z,3.50
2023-05-19T06:03:55.873Z,3.88
2023-05-19T06:06:30.326Z,3.50
2023-05-19T06:09:01.083Z,3.20
2023-05-19T06:11:32.087Z,3.58
2023-05-19T06:14:03.037Z,3.28
2023-05-19T06:16:49.293Z,3.03
2023-05-19T06:19:21.507Z,3.35
2023-05-19T06:21:54.312Z,3.30
2023-05-19T06:24:24.364Z,3.95
2023-05-19T06:26:54.443Z,2.60
2023-05-19T06:29:24.597Z,3.17
2023-05-19T06:31:57.008Z,3.00
2023-05-19T06:34:27.906Z,3.50
2023-05-19T06:37:02.672Z,3.00
2023-05-19T06:39:34.652Z,2.75
2023-05-19T06:42:04.952Z,3.05
2023-05-19T06:44:53.664Z,3.33
2023-05-19T06:47:23.893Z,4.10
2023-05-19T06:49:55.796Z,3.47
2023-05-19T06:52:32.108Z,4.45
2023-05-19T06:55:03.992Z,5.10
2023-05-19T06:57:36.343Z,7.85
2023-05-19T07:00:09.399Z,12.20
2023-05-19T07:02:39.652Z,8.40
2023-05-19T07:05:10.673Z,7.13
2023-05-19T07:07:43.570Z,8.02
2023-05-19T07:10:16.983Z,10.27
2023-05-19T07:12:47.349Z,9.38
2023-05-19T07:15:19.704Z,7.82
2023-05-19T07:17:49.856Z,6.50
2023-05-19T07:20:20.136Z,5.93
2023-05-19T07:22:52.906Z,4.55
2023-05-19T07:25:23.047Z,4.80
2023-05-19T07:27:53.194Z,7.97
2023-05-19T07:30:23.268Z,4.40
2023-05-19T07:32:53.412Z,4.45
2023-05-19T07:35:23.568Z,4.60
2023-05-19T07:37:56.241Z,6.05
2023-05-19T07:40:26.344Z,5.25
2023-05-19T07:42:56.706Z,6.30
2023-05-19T07:45:26.802Z,9.63
2023-05-19T07:47:57.363Z,8.05
2023-05-19T07:50:27.590Z,6.32
2023-05-19T07:53:00.251Z,5.72
2023-05-19T07:55:30.355Z,5.07
2023-05-19T07:58:00.419Z,5.80
2023-05-19T08:00:30.770Z,5.20
2023-05-19T08:03:02.010Z,5.57
2023-05-19T08:05:32.804Z,5.15
2023-05-19T08:08:05.712Z,5.30
2023-05-19T08:10:35.870Z,5.57
2023-05-19T08:13:06.095Z,4.78
2023-05-19T08:15:36.158Z,5.13
2023-05-19T08:18:06.342Z,4.43
2023-05-19T08:20:36.943Z,5.43
2023-05-19T08:23:09.566Z,6.05
2023-05-19T08:25:39.659Z,11.57
2023-05-19T08:28:09.916Z,6.88
2023-05-19T08:30:40.037Z,6.68
2023-05-19T08:33:10.153Z,6.93
2023-05-19T08:35:40.411Z,4.90
2023-05-19T08:38:13.107Z,6.03
2023-05-19T08:40:46.287Z,5.65
2023-05-19T08:43:16.416Z,6.15
2023-05-19T08:45:48.495Z,7.90
2023-05-19T08:48:20.559Z,7.20
2023-05-19T08:50:57.625Z,12.20
2023-05-19T08:53:33.823Z,7.68
2023-05-19T08:56:10.702Z,6.18
2023-05-19T08:58:44.198Z,5.30
2023-05-19T09:01:17.407Z,7.68
2023-05-19T09:03:50.172Z,7.72
2023-05-19T09:06:21.101Z,6.45
2023-05-19T09:08:53.859Z,5.35
2023-05-19T09:11:23.938Z,5.75
2023-05-19T09:13:54.336Z,5.30
2023-05-19T09:16:25.505Z,4.15
2023-05-19T09:19:01.400Z,5.20
2023-05-19T09:21:34.880Z,10.40
2023-05-19T09:24:12.502Z,16.23
2023-05-19T09:26:43.944Z,7.70
2023-05-19T09:29:14.902Z,5.50
2023-05-19T09:31:51.942Z,5.72
2023-05-19T09:34:22.507Z,5.82
2023-05-19T09:36:53.737Z,7.07
2023-05-19T09:39:29.033Z,8.88
2023-05-19T09:41:59.394Z,5.20
2023-05-19T09:44:31.542Z,4.70
2023-05-19T09:47:02.473Z,6.57
2023-05-19T09:49:34.169Z,4.90
2023-05-19T09:52:06.398Z,4.97
2023-05-19T09:54:39.668Z,6.93
2023-05-19T09:57:09.845Z,4.43
2023-05-19T09:59:40.036Z,5.03
2023-05-19T10:02:14.756Z,5.90
2023-05-19T10:04:45.928Z,5.55
2023-05-19T10:07:17.849Z,5.15
2023-05-19T10:09:52.106Z,8.50
2023-05-19T10:12:22.332Z,6.00
2023-05-19T10:14:55.003Z,4.82
2023-05-19T10:17:25.797Z,7.65
2023-05-19T10:19:56.746Z,6.93
2023-05-19T10:22:28.629Z,6.25
2023-05-19T10:25:01.330Z,8.75
2023-05-19T10:27:32.675Z,7.45
2023-05-19T10:30:09.365Z,6.45
2023-05-19T10:32:42.171Z,6.95
2023-05-19T10:35:43.790Z,5.63
2023-05-19T10:38:22.554Z,6.07
2023-05-19T10:41:06.501Z,10.43
2023-05-19T10:43:45.214Z,8.18
2023-05-19T10:46:15.362Z,9.10
2023-05-19T10:48:48.437Z,9.55
2023-05-19T10:51:18.744Z,9.30
2023-05-19T10:53:50.387Z,8.55
2023-05-19T10:56:44.016Z,10.88
2023-05-19T10:59:34.392Z,9.20
2023-05-19T11:02:07.963Z,8.52
2023-05-19T11:04:51.917Z,7.90
2023-05-19T11:07:24.926Z,9.05
2023-05-19T11:09:55.575Z,8.77
2023-05-19T11:12:28.251Z,8.90
2023-05-19T11:14:58.633Z,7.32
2023-05-19T11:17:29.013Z,7.68
2023-05-19T11:20:00.426Z,8.20
2023-05-19T11:22:31.485Z,9.10
2023-05-19T11:25:01.881Z,9.20
2023-05-19T11:27:37.585Z,7.82
2023-05-19T11:30:15.276Z,9.27
2023-05-19T11:32:45.555Z,7.55
2023-05-19T11:35:16.933Z,9.00
2023-05-19T11:37:47.954Z,8.18
2023-05-19T11:40:19.159Z,7.65
2023-05-19T11:42:51.847Z,8.38
2023-05-19T11:45:27.712Z,8.05
2023-05-19T11:48:02.679Z,7.53
2023-05-19T11:50:35.501Z,8.00
2023-05-19T11:53:05.557Z,8.35
2023-05-19T11:55:36.171Z,7.78
2023-05-19T11:58:08.816Z,8.38
2023-05-19T12:00:40.869Z,8.32
2023-05-19T12:03:12.109Z,9.25
2023-05-19T12:05:49.620Z,8.98
2023-05-19T12:08:20.467Z,9.38
2023-05-19T12:10:52.393Z,10.45
2023-05-19T12:13:25.581Z,10.38
2023-05-19T12:15:56.205Z,9.07
2023-05-19T12:18:26.282Z,9.88
2023-05-19T12:20:56.413Z,10.43
2023-05-19T12:23:27.391Z,10.45
2023-05-19T12:25:57.605Z,11.98
2023-05-19T12:28:33.041Z,11.05
2023-05-19T12:31:03.231Z,8.95
2023-05-19T12:33:35.991Z,8.25
2023-05-19T12:36:06.112Z,9.15
2023-05-19T12:38:37.628Z,10.23
2023-05-19T12:41:07.924Z,10.05
2023-05-19T12:43:40.600Z,8.38
2023-05-19T12:46:14.271Z,9.05
2023-05-19T12:48:44.675Z,8.88
2023-05-19T12:51:16.826Z,9.93
2023-05-19T12:53:47.533Z,9.27
2023-05-19T12:56:18.616Z,8.10
2023-05-19T12:58:56.764Z,11.82
2023-05-19T13:01:27.050Z,11.23
2023-05-19T13:03:57.410Z,9.60
2023-05-19T13:06:27.607Z,9.75
2023-05-19T13:08:57.627Z,9.55
2023-05-19T13:11:27.711Z,7.78
2023-05-19T13:14:00.412Z,8.35
2023-05-19T13:16:30.968Z,8.43
2023-05-19T13:19:01.474Z,8.35
2023-05-19T13:21:31.953Z,9.20
2023-05-19T13:24:03.519Z,12.40
2023-05-19T13:26:33.622Z,12.60
2023-05-19T13:29:06.316Z,10.30
2023-05-19T13:31:36.471Z,10.00
2023-05-19T13:34:07.188Z,7.85
2023-05-19T13:36:37.802Z,10.10
2023-05-19T13:39:07.949Z,10.07
2023-05-19T13:41:38.609Z,9.45
2023-05-19T13:44:11.423Z,10.10
2023-05-19T13:49:31.512Z,9.20
2023-05-19T13:51:33.025Z,9.73
2023-05-19T13:52:01.756Z,8.95
2023-05-19T13:54:31.792Z,8.63
2023-05-19T13:57:01.869Z,12.52
2023-05-19T13:59:36.035Z,10.30
2023-05-19T14:02:09.246Z,9.50
2023-05-19T14:04:40.982Z,10.65
2023-05-19T14:07:11.501Z,13.90
2023-05-19T14:09:41.560Z,10.30
2023-05-19T14:12:12.354Z,11.07
2023-05-19T14:14:45.016Z,10.07
2023-05-19T14:17:15.402Z,10.77
2023-05-19T14:19:45.498Z,13.02
2023-05-19T14:22:15.758Z,10.52
2023-05-19T14:24:45.794Z,18.13
2023-05-19T14:27:16.121Z,20.23
2023-05-19T14:29:49.086Z,12.57
2023-05-19T14:32:19.535Z,9.88
2023-05-19T14:34:52.984Z,9.40
2023-05-19T14:37:23.068Z,9.90
2023-05-19T14:39:53.174Z,9.38
2023-05-19T14:42:23.241Z,9.43
2023-05-19T14:44:56.197Z,10.55
2023-05-19T14:47:27.292Z,10.02
2023-05-19T14:49:57.615Z,9.25
2023-05-19T14:52:27.681Z,10.48
2023-05-19T14:54:57.756Z,11.98
2023-05-19T14:57:27.851Z,16.55
2023-05-19T15:00:00.491Z,15.85
2023-05-19T15:02:30.587Z,23.13
2023-05-19T15:05:01.180Z,17.33
2023-05-19T15:07:31.259Z,19.70
2023-05-19T15:10:01.949Z,25.85
2023-05-19T15:12:32.103Z,17.42
2023-05-19T15:15:05.345Z,11.40
2023-05-19T15:17:35.447Z,14.65
2023-05-19T15:20:05.623Z,20.15
2023-05-19T15:22:35.745Z,23.67
2023-05-19T15:25:05.896Z,26.00
2023-05-19T15:27:37.683Z,15.60
2023-05-19T15:30:11.337Z,9.38
2023-05-19T15:32:41.411Z,18.05
2023-05-19T15:35:12.870Z,8.93
2023-05-19T15:37:42.910Z,11.85
2023-05-19T15:40:14.179Z,11.05
2023-05-19T15:42:44.233Z,9.15
2023-05-19T15:45:16.904Z,8.68
2023-05-19T15:47:46.999Z,8.60
2023-05-19T15:50:17.117Z,7.80
2023-05-19T15:52:47.160Z,39.95
2023-05-19T15:55:17.214Z,9.38
2023-05-19T15:57:47.275Z,10.20
2023-05-19T16:00:20.677Z,9.57
2023-05-19T16:02:51.135Z,17.23
2023-05-19T16:05:21.390Z,9.68
2023-05-19T16:07:51.454Z,10.43
2023-05-19T16:10:21.637Z,9.93
2023-05-19T16:12:51.694Z,8.95
2023-05-19T16:15:24.421Z,10.70
2023-05-19T16:17:55.263Z,8.68
2023-05-19T16:20:28.323Z,9.98
2023-05-19T16:22:58.418Z,10.32
2023-05-19T16:25:28.487Z,10.88
2023-05-19T16:27:58.567Z,10.68
2023-05-19T16:30:31.341Z,10.45
2023-05-19T16:33:01.649Z,9.23
2023-05-19T16:35:32.373Z,38.30
2023-05-19T16:38:02.493Z,39.83
2023-05-19T16:40:32.814Z,159.25
2023-05-19T16:43:03.009Z,288.77
2023-05-19T16:45:35.782Z,587.13
2023-05-19T16:48:06.199Z,311.85
2023-05-19T16:50:36.526Z,55.25
2023-05-19T16:53:06.861Z,25.77
2023-05-19T16:55:36.954Z,13.75
2023-05-19T16:58:07.044Z,177.52
2023-05-19T17:00:42.789Z,34.72
2023-05-19T17:03:13.110Z,24.88
2023-05-19T17:05:43.741Z,34.70
2023-05-19T17:08:13.816Z,18.98
2023-05-19T17:10:45.034Z,11.30
2023-05-19T17:13:15.073Z,15.52
2023-05-19T17:15:52.599Z,16.00
2023-05-19T17:18:22.683Z,23.23
2023-05-19T17:20:52.697Z,30.55
2023-05-19T17:23:22.836Z,31.27
2023-05-19T17:25:57.193Z,11.18
2023-05-19T17:28:27.990Z,23.83
2023-05-19T17:31:01.823Z,12.80
2023-05-19T17:33:31.953Z,17.30
2023-05-19T17:36:02.146Z,13.85
2023-05-19T17:38:32.446Z,10.73
2023-05-19T17:41:02.731Z,9.63
2023-05-19T17:43:32.804Z,10.70
2023-05-19T17:46:05.500Z,9.65
2023-05-19T17:48:36.472Z,10.63
2023-05-19T17:51:07.320Z,10.82
2023-05-19T17:53:38.166Z,12.82
2023-05-19T17:56:11.913Z,11.90
2023-05-19T17:58:42.708Z,10.43
2023-05-19T18:01:16.035Z,11.05
2023-05-19T18:03:49.910Z,17.92
2023-05-19T18:06:20.985Z,27.65
2023-05-19T18:08:51.975Z,42.33
2023-05-19T18:11:22.965Z,62.92
2023-05-19T18:13:53.030Z,42.10
2023-05-19T18:16:25.912Z,27.30
2023-05-19T18:18:56.627Z,17.45
2023-05-19T18:21:27.073Z,29.30
2023-05-19T18:23:57.115Z,43.88
2023-05-19T18:26:27.171Z,18.17
2023-05-19T18:29:02.585Z,15.60
2023-05-19T18:31:35.388Z,22.17
2023-05-19T18:34:05.692Z,19.42
2023-05-19T18:36:36.021Z,16.40
2023-05-19T18:39:06.239Z,15.30
2023-05-19T18:41:37.675Z,19.33
2023-05-19T18:44:08.302Z,13.48
2023-05-19T18:46:41.049Z,14.68
2023-05-19T18:49:12.068Z,11.82
2023-05-19T18:51:42.369Z,16.50
2023-05-19T18:54:12.786Z,17.83
2023-05-19T18:56:42.870Z,12.85
2023-05-19T18:59:12.931Z,13.50
2023-05-19T19:01:45.838Z,14.43
2023-05-19T19:04:16.971Z,14.15
2023-05-19T19:06:48.717Z,12.30
2023-05-19T19:09:18.839Z,12.05
2023-05-19T19:11:48.896Z,11.43
2023-05-19T19:14:19.586Z,12.13
2023-05-19T19:16:52.232Z,11.80
2023-05-19T19:19:23.953Z,13.80
2023-05-19T19:21:54.269Z,12.85
2023-05-19T19:24:24.475Z,12.48
2023-05-19T19:26:54.514Z,11.15
2023-05-19T19:29:24.557Z,11.80
2023-05-19T19:31:57.281Z,11.70
2023-05-19T19:34:27.444Z,12.07
2023-05-19T19:36:57.674Z,11.90
2023-05-19T19:39:27.748Z,12.57
2023-05-19T19:41:58.049Z,11.63
2023-05-19T19:44:28.230Z,11.80
2023-05-19T19:47:00.885Z,12.02
2023-05-19T19:49:30.934Z,11.98
2023-05-19T19:52:01.658Z,12.38
2023-05-19T19:54:31.941Z,13.15
2023-05-19T19:57:02.070Z,13.00
2023-05-19T19:59:32.116Z,14.20
2023-05-19T20:02:05.053Z,56.70
2023-05-19T20:04:35.273Z,18.77
2023-05-19T20:07:05.432Z,14.60
2023-05-19T20:09:35.488Z,13.52
2023-05-19T20:12:05.625Z,17.05
2023-05-19T20:14:36.051Z,19.17
2023-05-19T20:17:08.723Z,15.02
2023-05-19T20:19:38.833Z,13.18
2023-05-19T20:22:08.919Z,11.85
2023-05-19T20:24:39.051Z,12.02
2023-05-19T20:27:09.727Z,11.43
2023-05-19T20:29:39.797Z,11.80
2023-05-19T20:32:12.902Z,15.50
2023-05-19T20:34:43.104Z,21.08
2023-05-19T20:37:14.011Z,15.82
2023-05-19T20:39:44.181Z,13.45
2023-05-19T20:42:14.235Z,12.50
2023-05-19T20:44:44.347Z,11.93
2023-05-19T20:47:19.349Z,11.85
2023-05-19T20:49:49.392Z,12.57
2023-05-19T20:52:19.628Z,10.98
2023-05-19T20:54:49.680Z,12.13
2023-05-19T20:57:19.736Z,13.10
2023-05-19T20:59:49.806Z,11.23
2023-05-19T21:02:22.419Z,11.82
2023-05-19T21:04:52.667Z,11.80
2023-05-19T21:07:22.826Z,12.05
2023-05-19T21:09:54.519Z,12.00
2023-05-19T21:12:25.558Z,12.27
2023-05-19T21:14:55.634Z,11.40
2023-05-19T21:17:28.417Z,11.82
2023-05-19T21:19:59.848Z,11.73
2023-05-19T21:22:30.679Z,11.60
2023-05-19T21:25:00.919Z,11.95
2023-05-19T21:27:32.412Z,12.07
2023-05-19T21:30:02.695Z,12.20
2023-05-19T21:32:37.770Z,12.15
2023-05-19T21:35:09.124Z,11.45
2023-05-19T21:37:39.436Z,11.00
2023-05-19T21:40:11.155Z,11.75
2023-05-19T21:42:41.207Z,11.98
2023-05-19T21:45:12.316Z,11.70
2023-05-19T21:47:45.028Z,11.38
2023-05-19T21:50:17.566Z,12.38
2023-05-19T21:52:47.603Z,12.50
2023-05-19T21:55:17.636Z,11.82
2023-05-19T21:57:47.664Z,12.50
2023-05-19T22:00:18.728Z,12.30
2023-05-19T22:02:51.436Z,11.60
2023-05-19T22:05:21.598Z,11.57
2023-05-19T22:07:51.640Z,11.75
2023-05-19T22:10:21.912Z,11.27
2023-05-19T22:12:52.128Z,11.63
2023-05-19T22:15:22.320Z,12.13
2023-05-19T22:17:55.109Z,12.57
2023-05-19T22:20:25.192Z,10.07
2023-05-19T22:22:55.263Z,11.63
2023-05-19T22:25:25.300Z,11.65
2023-05-19T22:27:55.331Z,11.27
2023-05-19T22:30:25.994Z,12.27
2023-05-19T22:32:58.702Z,12.38
2023-05-19T22:35:29.061Z,12.80
2023-05-19T22:37:59.106Z,12.10
2023-05-19T22:40:29.225Z,12.73
2023-05-19T22:42:59.328Z,13.40
2023-05-19T22:45:29.368Z,12.48
2023-05-19T22:48:02.036Z,12.00
2023-05-19T22:50:32.198Z,13.40
2023-05-19T22:53:02.266Z,13.07
2023-05-19T22:55:32.537Z,12.55
2023-05-19T22:58:02.808Z,12.43
2023-05-19T23:00:32.990Z,13.20
2023-05-19T23:03:05.878Z,12.68
2023-05-19T23:05:36.190Z,13.60
2023-05-19T23:08:06.388Z,12.25
2023-05-19T23:10:36.447Z,12.90
2023-05-19T23:13:06.500Z,13.20
2023-05-19T23:15:36.652Z,12.45
2023-05-19T23:18:09.470Z,11.90
2023-05-19T23:20:39.553Z,12.95
2023-05-19T23:23:09.595Z,12.68
2023-05-19T23:25:39.665Z,12.77
2023-05-19T23:28:11.108Z,11.98
2023-05-19T23:30:41.209Z,11.32
2023-05-19T23:33:13.956Z,11.57
2023-05-19T23:35:44.061Z,12.30
2023-05-19T23:38:14.124Z,12.73
2023-05-19T23:40:44.258Z,11.60
2023-05-19T23:43:14.388Z,11.40
2023-05-19T23:45:44.785Z,11.63
2023-05-19T23:48:17.470Z,12.02
2023-05-19T23:50:47.881Z,11.68
2023-05-19T23:53:17.937Z,12.23
2023-05-19T23:55:48.084Z,12.50
2023-05-19T23:58:18.441Z,12.45
